Time;durP1;ratioP1;P1;durP2;ratioP2;P2;SDS_P1;SDS_P2;PMS_P1;PMS_P2;Temp;Humidity;BMP_temperature;BMP_pressure;BME280_temperature;BME280_humidity;BME280_pressure;Samples;Min_cycle;Max_cycle;Signal;HPM_P1;HPM_P2
2023/03/06 00:00:54;;;;;;;;;;;;;;;20.40;46.12;100033.16;4956444;28;4183;-67
2023/03/06 00:03:21;;;;;;;;;;;;;;;20.39;46.03;100028.81;4959070;28;4160;-66
2023/03/06 00:05:47;;;;;;;;;;;;;;;20.39;46.06;100023.06;4944659;28;5305;-67
2023/03/06 00:08:14;;;;;;;;;;;;;;;20.38;46.15;100018.69;4958724;28;5505;-67
2023/03/06 00:10:40;;;;;;;;;;;;;;;20.39;46.13;100017.31;4958191;28;5437;-68
2023/03/06 00:13:07;;;;;;;;;;;;;;;20.39;45.97;100022.31;4957951;28;4042;-67
2023/03/06 00:15:34;;;;;;;;;;;;;;;20.41;46.09;100014.50;4956303;28;4358;-68
2023/03/06 00:18:01;;;;;;;;;;;;;;;20.41;46.07;100005.88;4958684;28;4308;-67
2023/03/06 00:20:28;;;;;;;;;;;;;;;20.41;46.05;100011.63;4959160;28;5341;-67
2023/03/06 00:22:54;;;;;;;;;;;;;;;20.41;46.36;100008.00;4955994;28;4161;-67
2023/03/06 00:25:21;;;;;;;;;;;;;;;20.40;46.34;99998.63;4942830;28;4492;-68
2023/03/06 00:27:47;;;;;;;;;;;;;;;20.41;46.06;99996.50;4957557;28;4167;-68
2023/03/06 00:30:15;;;;;;;;;;;;;;;20.40;46.10;99995.75;4956043;28;4143;-68
2023/03/06 00:32:41;;;;;;;;;;;;;;;20.39;46.08;99988.56;4958650;28;5303;-67
2023/03/06 00:35:07;;;;;;;;;;;;;;;20.38;46.08;99987.06;4955779;28;4222;-68
2023/03/06 00:37:34;;;;;;;;;;;;;;;20.38;46.11;99987.06;4963885;28;5280;-67
2023/03/06 00:40:00;;;;;;;;;;;;;;;20.39;46.08;99987.81;4956510;28;4018;-67
2023/03/06 00:42:27;;;;;;;;;;;;;;;20.38;46.24;99974.84;4955727;28;4089;-68
2023/03/06 00:44:53;;;;;;;;;;;;;;;20.36;46.13;99977.66;4951130;28;4172;-68
2023/03/06 00:47:20;;;;;;;;;;;;;;;20.37;46.10;99974.09;4957064;28;4122;-68
2023/03/06 00:49:47;;;;;;;;;;;;;;;20.38;46.22;99969.81;4961653;28;3928;-67
2023/03/06 00:52:13;;;;;;;;;;;;;;;20.38;46.13;99964.06;4946084;28;5561;-67
2023/03/06 00:54:40;;;;;;;;;;;;;;;20.39;46.36;99961.94;4958178;28;4213;-67
2023/03/06 00:57:06;;;;;;;;;;;;;;;20.38;46.30;99958.31;4961508;28;4051;-67
2023/03/06 00:59:32;;;;;;;;;;;;;;;20.40;46.27;99961.25;4959633;28;5066;-67
2023/03/06 01:01:59;;;;;;;;;;;;;;;20.38;46.23;99952.56;4956889;28;5312;-68
2023/03/06 01:04:25;;;;;;;;;;;;;;;20.38;46.16;99946.81;4953186;28;3976;-67
2023/03/06 01:06:52;;;;;;;;;;;;;;;20.39;46.18;99938.94;4957590;28;3991;-68
2023/03/06 01:09:18;;;;;;;;;;;;;;;20.39;46.23;99936.81;4955187;28;4311;-68
2023/03/06 01:11:44;;;;;;;;;;;;;;;20.37;46.17;99928.09;4955197;28;4125;-67
2023/03/06 01:14:11;;;;;;;;;;;;;;;20.37;46.35;99925.22;4957284;28;5348;-67
2023/03/06 01:16:37;;;;;;;;;;;;;;;20.37;46.16;99921.63;4956260;28;4102;-68
2023/03/06 01:19:04;;;;;;;;;;;;;;;20.38;46.35;99906.56;4950754;28;4289;-66
2023/03/06 01:21:30;;;;;;;;;;;;;;;20.36;46.23;99892.13;4953689;28;4032;-67
2023/03/06 01:23:57;;;;;;;;;;;;;;;20.37;46.44;99896.47;4962034;28;5461;-67
2023/03/06 01:26:23;;;;;;;;;;;;;;;20.36;46.34;99894.25;4965781;28;4181;-68
2023/03/06 01:28:50;;;;;;;;;;;;;;;20.36;46.35;99895.00;4945572;28;4063;-68
2023/03/06 01:31:16;;;;;;;;;;;;;;;20.38;46.24;99888.59;4960120;28;4200;-67
2023/03/06 01:33:43;;;;;;;;;;;;;;;20.38;46.28;99883.56;4962564;28;4180;-67
2023/03/06 01:36:10;;;;;;;;;;;;;;;20.39;46.40;99881.44;4960780;28;4089;-67
2023/03/06 01:38:36;;;;;;;;;;;;;;;20.39;46.30;99867.78;4957367;28;4083;-68
2023/03/06 01:41:02;;;;;;;;;;;;;;;20.36;46.53;99872.00;4940149;28;5312;-67
2023/03/06 01:43:30;;;;;;;;;;;;;;;20.38;46.24;99874.94;4957923;28;4141;-67
2023/03/06 01:46:15;;;;;;;;;;;;;;;20.38;46.16;99863.44;4958491;28;4151;-67
2023/03/06 01:48:41;;;;;;;;;;;;;;;20.36;46.40;99863.38;4948238;28;4190;-68
2023/03/06 01:51:07;;;;;;;;;;;;;;;20.36;46.29;99863.38;4959110;28;4260;-67
2023/03/06 01:53:34;;;;;;;;;;;;;;;20.36;46.38;99857.63;4949477;28;4121;-68
2023/03/06 01:56:00;;;;;;;;;;;;;;;20.36;46.28;99862.63;4956514;28;4228;-68
2023/03/06 01:58:27;;;;;;;;;;;;;;;20.36;46.27;99856.88;4942643;28;4435;-68
2023/03/06 02:00:53;;;;;;;;;;;;;;;20.36;46.24;99846.13;4963066;28;4252;-67
2023/03/06 02:03:20;;;;;;;;;;;;;;;20.35;46.17;99847.53;4956917;28;4213;-68
2023/03/06 02:05:47;;;;;;;;;;;;;;;20.36;46.31;99851.13;4947817;28;4132;-67
2023/03/06 02:08:14;;;;;;;;;;;;;;;20.37;46.49;99847.59;4920272;28;4078;-68
2023/03/06 02:10:59;;;;;;;;;;;;;;;20.37;46.46;99850.47;4922422;28;4146;-68
2023/03/06 02:13:25;;;;;;;;;;;;;;;20.36;46.40;99837.50;4952704;28;4178;-68
2023/03/06 02:15:52;;;;;;;;;;;;;;;20.38;46.31;99839.69;4955869;28;4219;-68
2023/03/06 02:18:18;;;;;;;;;;;;;;;20.38;46.31;99843.31;4957110;28;4036;-68
2023/03/06 02:20:45;;;;;;;;;;;;;;;20.37;46.30;99830.34;4944827;28;4200;-68
2023/03/06 02:23:35;;;;;;;;;;;;;;;20.37;46.30;99836.09;4948346;28;4119;-68
2023/03/06 02:26:02;;;;;;;;;;;;;;;20.36;46.28;99833.88;4945186;28;4173;-68
2023/03/06 02:28:29;;;;;;;;;;;;;;;20.35;46.20;99833.16;4939859;28;4093;-68
2023/03/06 02:30:55;;;;;;;;;;;;;;;20.33;46.21;99830.22;4952708;28;4177;-68
2023/03/06 02:33:23;;;;;;;;;;;;;;;20.34;46.32;99831.72;4948214;28;4345;-68
2023/03/06 02:35:53;;;;;;;;;;;;;;;20.33;46.28;99824.47;4956573;28;5250;-67
2023/03/06 02:38:21;;;;;;;;;;;;;;;20.32;46.25;99823.00;4955266;28;4355;-69
2023/03/06 02:40:48;;;;;;;;;;;;;;;20.34;46.34;99819.44;4941204;28;4163;-68
2023/03/06 02:43:15;;;;;;;;;;;;;;;20.33;46.31;99807.22;4959560;28;4283;-67
2023/03/06 02:45:44;;;;;;;;;;;;;;;20.34;46.42;99813.69;4945525;28;4215;-67
2023/03/06 02:48:11;;;;;;;;;;;;;;;20.34;46.22;99811.59;4947321;28;4092;-68
2023/03/06 02:50:38;;;;;;;;;;;;;;;20.34;46.30;99814.47;4960120;28;4207;-68
2023/03/06 02:53:04;;;;;;;;;;;;;;;20.35;46.41;99818.78;4957183;28;4362;-68
2023/03/06 02:55:31;;;;;;;;;;;;;;;20.34;46.36;99808.72;4956145;28;5367;-68
2023/03/06 02:57:58;;;;;;;;;;;;;;;20.35;46.31;99809.44;4944866;28;4266;-68
2023/03/06 03:00:24;;;;;;;;;;;;;;;20.34;46.36;99802.97;4963877;28;4215;-68
2023/03/06 03:02:52;;;;;;;;;;;;;;;20.33;46.15;99795.72;4942232;28;6252;-67
2023/03/06 03:05:18;;;;;;;;;;;;;;;20.33;46.37;99801.47;4916928;28;4392;-67
2023/03/06 03:07:50;;;;;;;;;;;;;;;20.32;46.35;99797.16;4942120;28;4151;-67
2023/03/06 03:10:17;;;;;;;;;;;;;;;20.33;46.27;99789.97;4940838;28;4289;-67
2023/03/06 03:12:44;;;;;;;;;;;;;;;20.32;46.41;99791.41;4946352;28;4000;-68
2023/03/06 03:15:11;;;;;;;;;;;;;;;20.29;46.38;99790.59;4947148;28;4229;-67
2023/03/06 03:17:38;;;;;;;;;;;;;;;20.30;46.29;99782.72;4940454;28;4218;-67
2023/03/06 03:20:05;;;;;;;;;;;;;;;20.30;46.26;99785.59;4958795;28;4695;-67
2023/03/06 03:22:31;;;;;;;;;;;;;;;20.30;46.26;99791.34;4940455;28;4138;-67
2023/03/06 03:24:58;;;;;;;;;;;;;;;20.31;46.32;99787.03;4958710;28;4112;-67
2023/03/06 03:27:25;;;;;;;;;;;;;;;20.30;46.42;99794.22;4958490;28;4201;-68
2023/03/06 03:29:51;;;;;;;;;;;;;;;20.31;46.36;99787.03;4947093;28;4004;-67
2023/03/06 03:32:18;;;;;;;;;;;;;;;20.30;46.39;99786.31;4958659;28;4128;-67
2023/03/06 03:34:44;;;;;;;;;;;;;;;20.32;46.29;99785.66;4940565;28;4063;-67
2023/03/06 03:37:11;;;;;;;;;;;;;;;20.30;46.51;99785.59;4946718;28;5259;-68
2023/03/06 03:39:40;;;;;;;;;;;;;;;20.30;46.49;99783.44;4947805;28;5527;-69
2023/03/06 03:42:06;;;;;;;;;;;;;;;20.30;46.37;99782.72;4960321;28;4234;-68
2023/03/06 03:44:33;;;;;;;;;;;;;;;20.30;46.44;99785.59;4962630;28;5398;-68
2023/03/06 03:47:00;;;;;;;;;;;;;;;20.30;46.33;99785.59;4942090;28;5324;-67
2023/03/06 03:49:26;;;;;;;;;;;;;;;20.29;46.33;99792.72;4939391;28;4132;-68
2023/03/06 03:51:53;;;;;;;;;;;;;;;20.29;46.33;99793.47;4939713;28;5136;-68
2023/03/06 03:54:21;;;;;;;;;;;;;;;20.30;46.41;99791.34;4949193;28;5198;-68
2023/03/06 03:56:49;;;;;;;;;;;;;;;20.31;46.34;99795.66;4942228;28;4120;-67
2023/03/06 03:59:23;;;;;;;;;;;;;;;20.32;46.30;99802.13;4963546;28;4940;-68
2023/03/06 04:02:03;;;;;;;;;;;;;;;20.33;46.27;99807.22;4946540;28;4643;-67
2023/03/06 04:04:33;;;;;;;;;;;;;;;20.34;46.30;99807.94;4962424;28;5375;-67
2023/03/06 04:07:00;;;;;;;;;;;;;;;20.35;46.32;99815.19;4945349;28;4331;-67
2023/03/06 04:09:27;;;;;;;;;;;;;;;20.35;46.29;99804.41;4953239;28;5592;-67
2023/03/06 04:11:54;;;;;;;;;;;;;;;20.34;46.28;99817.34;4944247;28;4280;-68
2023/03/06 04:14:20;;;;;;;;;;;;;;;20.35;46.25;99815.91;4948408;28;5208;-67
2023/03/06 04:16:47;;;;;;;;;;;;;;;20.36;46.17;99822.38;4933437;28;4102;-67
2023/03/06 04:19:13;;;;;;;;;;;;;;;20.36;46.29;99817.38;4952169;28;4290;-68
2023/03/06 04:21:40;;;;;;;;;;;;;;;20.36;46.25;99820.25;4945650;28;4156;-67
2023/03/06 04:24:07;;;;;;;;;;;;;;;20.35;46.31;99815.91;4945828;28;4165;-67
2023/03/06 04:26:34;;;;;;;;;;;;;;;20.35;46.19;99818.78;4945303;28;4534;-67
2023/03/06 04:29:01;;;;;;;;;;;;;;;20.35;46.27;99818.78;4944977;28;4158;-67
2023/03/06 04:31:27;;;;;;;;;;;;;;;20.35;46.32;99815.19;4948119;28;4018;-68
2023/03/06 04:33:54;;;;;;;;;;;;;;;20.36;46.28;99819.50;4945958;28;5322;-68
2023/03/06 04:36:24;;;;;;;;;;;;;;;20.35;46.17;99820.94;4944968;28;5333;-68
2023/03/06 04:38:53;;;;;;;;;;;;;;;20.34;46.17;99817.34;4917926;28;5243;-68
2023/03/06 04:41:19;;;;;;;;;;;;;;;20.36;46.20;99825.25;4936317;28;4218;-67
2023/03/06 04:43:46;;;;;;;;;;;;;;;20.35;46.23;99827.41;4952327;28;5425;-68
2023/03/06 04:46:12;;;;;;;;;;;;;;;20.34;46.08;99823.09;4951785;28;5210;-67
2023/03/06 04:48:39;;;;;;;;;;;;;;;20.35;46.12;99826.69;4951021;28;4187;-67
2023/03/06 04:51:05;;;;;;;;;;;;;;;20.34;46.04;99825.19;4950688;28;4204;-68
2023/03/06 04:53:31;;;;;;;;;;;;;;;20.33;46.15;99824.47;4956168;28;6371;-67
2023/03/06 04:55:58;;;;;;;;;;;;;;;20.34;46.08;99830.94;4957080;28;5267;-68
2023/03/06 04:58:24;;;;;;;;;;;;;;;20.34;46.06;99819.44;4952817;28;4235;-67
2023/03/06 05:00:50;;;;;;;;;;;;;;;20.35;46.12;99824.53;4956797;28;4141;-67
2023/03/06 05:03:17;;;;;;;;;;;;;;;20.35;46.07;99824.53;4950203;28;4525;-68
2023/03/06 05:05:43;;;;;;;;;;;;;;;20.36;46.05;99828.88;4958335;28;4371;-67
2023/03/06 05:08:14;;;;;;;;;;;;;;;20.37;45.94;99830.34;4958773;28;4207;-68
2023/03/06 05:10:40;;;;;;;;;;;;;;;20.38;46.24;99831.81;4962370;28;3933;-67
2023/03/06 05:13:07;;;;;;;;;;;;;;;20.38;46.09;99831.81;4960071;28;4316;-68
2023/03/06 05:15:33;;;;;;;;;;;;;;;20.38;46.15;99823.19;4958214;28;4138;-68
2023/03/06 05:17:59;;;;;;;;;;;;;;;20.39;46.07;99827.53;4957371;28;4360;-67
2023/03/06 05:20:27;;;;;;;;;;;;;;;20.40;46.08;99825.38;4956908;28;5349;-67
2023/03/06 05:22:54;;;;;;;;;;;;;;;20.39;46.28;99829.69;4955341;28;3962;-67
2023/03/06 05:25:20;;;;;;;;;;;;;;;20.38;46.07;99826.06;4955090;28;4351;-67
2023/03/06 05:27:46;;;;;;;;;;;;;;;20.37;46.13;99836.09;4961227;28;4242;-67
2023/03/06 05:30:13;;;;;;;;;;;;;;;20.38;46.12;99833.94;4954226;28;4315;-67
2023/03/06 05:32:39;;;;;;;;;;;;;;;20.38;46.14;99833.94;4954828;28;4202;-68
2023/03/06 05:35:05;;;;;;;;;;;;;;;20.36;46.08;99828.88;4953579;28;4171;-68
2023/03/06 05:37:32;;;;;;;;;;;;;;;20.37;46.04;99835.38;4952862;28;4182;-68
2023/03/06 05:39:58;;;;;;;;;;;;;;;20.38;46.21;99837.56;4958543;28;4106;-67
2023/03/06 05:42:24;;;;;;;;;;;;;;;20.38;46.07;99837.56;4953251;28;4219;-67
2023/03/06 05:44:53;;;;;;;;;;;;;;;20.39;46.10;99838.31;4953411;28;5273;-67
2023/03/06 05:47:20;;;;;;;;;;;;;;;20.40;46.11;99845.53;4953811;28;4107;-68
2023/03/06 05:49:46;;;;;;;;;;;;;;;20.39;46.15;99844.78;4953690;28;4157;-67
2023/03/06 05:52:13;;;;;;;;;;;;;;;20.37;46.42;99838.97;4954889;28;4083;-67
2023/03/06 05:54:40;;;;;;;;;;;;;;;20.38;46.21;99831.81;4943444;28;5260;-67
2023/03/06 05:57:06;;;;;;;;;;;;;;;20.36;46.22;99831.75;4952854;28;5219;-67
2023/03/06 05:59:32;;;;;;;;;;;;;;;20.36;46.35;99834.63;4955370;28;4249;-66
2023/03/06 06:01:59;;;;;;;;;;;;;;;20.35;46.28;99838.19;4953540;28;4214;-67
2023/03/06 06:04:26;;;;;;;;;;;;;;;20.37;46.45;99830.34;4947267;28;4160;-68
2023/03/06 06:06:56;;;;;;;;;;;;;;;20.40;46.29;99834.03;4953037;28;5551;-69
2023/03/06 06:09:22;;;;;;;;;;;;;;;20.43;46.33;99839.16;4954859;28;5272;-68
2023/03/06 06:11:51;;;;;;;;;;;;;;;20.45;46.39;99835.59;4954389;28;4365;-67
2023/03/06 06:14:18;;;;;;;;;;;;;;;20.46;46.27;99832.06;4951033;28;4219;-67
2023/03/06 06:16:44;;;;;;;;;;;;;;;20.48;46.42;99829.25;4945371;28;4142;-68
2023/03/06 06:19:17;;;;;;;;;;;;;;;20.55;46.27;99838.03;4947768;28;4162;-67
2023/03/06 06:21:44;;;;;;;;;;;;;;;20.54;46.44;99833.69;4954218;28;4438;-67
2023/03/06 06:24:11;;;;;;;;;;;;;;;20.49;46.71;99835.72;4956333;28;4134;-71
2023/03/06 06:26:37;;;;;;;;;;;;;;;20.28;46.42;99846.63;4950817;28;4042;-70
2023/03/06 06:29:04;;;;;;;;;;;;;;;20.34;46.86;99831.72;4950968;28;4191;-71
2023/03/06 06:31:30;;;;;;;;;;;;;;;20.43;47.93;99839.16;4952308;28;4174;-71
2023/03/06 06:33:56;;;;;;;;;;;;;;;20.47;48.68;99833.50;4950685;28;4099;-69
2023/03/06 06:36:23;;;;;;;;;;;;;;;20.47;48.64;99845.00;4954555;28;4080;-70
2023/03/06 06:38:49;;;;;;;;;;;;;;;20.49;48.59;99841.47;4955078;28;4470;-70
2023/03/06 06:41:15;;;;;;;;;;;;;;;20.49;48.52;99853.72;4953975;28;5231;-71
2023/03/06 06:44:09;;;;;;;;;;;;;;;20.50;48.39;99849.44;4958581;28;4174;-70
2023/03/06 06:46:35;;;;;;;;;;;;;;;20.49;47.60;99856.59;4955828;28;4219;-69
2023/03/06 06:49:22;;;;;;;;;;;;;;;20.53;47.65;99858.13;4960036;28;4035;-70
2023/03/06 06:51:48;;;;;;;;;;;;;;;20.56;48.01;99851.03;4958314;28;4246;-69
2023/03/06 06:54:14;;;;;;;;;;;;;;;20.55;47.95;99850.28;4951171;28;4220;-69
2023/03/06 06:56:41;;;;;;;;;;;;;;;20.53;48.02;99849.50;4953275;28;5153;-66
2023/03/06 06:59:08;;;;;;;;;;;;;;;20.63;47.57;99859.16;4952781;28;4418;-63
2023/03/06 07:01:42;;;;;;;;;;;;;;;20.44;47.48;99852.13;4944933;28;4237;-62
2023/03/06 07:04:10;;;;;;;;;;;;;;;20.46;47.37;99854.34;4952213;28;4906;-62
2023/03/06 07:06:37;;;;;;;;;;;;;;;20.50;48.08;99855.19;4950839;28;4178;-63
2023/03/06 07:09:04;;;;;;;;;;;;;;;20.85;48.66;99859.09;4949985;28;5581;-63
2023/03/06 07:11:30;;;;;;;;;;;;;;;21.04;47.82;99842.34;4956825;28;5464;-69
2023/03/06 07:13:57;;;;;;;;;;;;;;;21.10;47.54;99845.38;4953822;28;5249;-68
2023/03/06 07:16:23;;;;;;;;;;;;;;;21.02;47.02;99848.03;4952752;28;4130;-67
2023/03/06 07:18:49;;;;;;;;;;;;;;;20.98;46.58;99853.66;4954463;28;5471;-65
2023/03/06 07:21:16;;;;;;;;;;;;;;;20.83;46.77;99855.44;4954604;28;4759;-66
2023/03/06 07:23:42;;;;;;;;;;;;;;;20.84;47.29;99860.50;4954867;28;4215;-64
2023/03/06 07:26:09;;;;;;;;;;;;;;;20.98;47.09;99856.53;4957617;28;4249;-65
2023/03/06 07:28:35;;;;;;;;;;;;;;;21.10;46.84;99845.38;4941413;28;5227;-68
2023/03/06 07:31:17;;;;;;;;;;;;;;;21.11;45.83;99852.59;4953252;28;4173;-66
2023/03/06 07:33:43;;;;;;;;;;;;;;;21.11;45.67;99847.56;4956846;28;4204;-68
2023/03/06 07:36:10;;;;;;;;;;;;;;;21.06;45.56;99848.16;4960703;28;5249;-67
2023/03/06 07:38:39;;;;;;;;;;;;;;;21.11;45.47;99849.72;4955767;28;4228;-66
2023/03/06 07:41:08;;;;;;;;;;;;;;;21.17;45.53;99841.25;4958578;28;4067;-71
2023/03/06 07:43:34;;;;;;;;;;;;;;;21.18;44.63;99844.88;4958060;28;4140;-69
2023/03/06 07:46:04;;;;;;;;;;;;;;;21.11;44.02;99852.59;4942658;28;4172;-70
2023/03/06 07:48:31;;;;;;;;;;;;;;;20.47;43.18;99850.78;4957691;28;5561;-73
2023/03/06 07:50:58;;;;;;;;;;;;;;;19.52;41.27;99851.34;4952901;28;4188;-68
2023/03/06 07:53:24;;;;;;;;;;;;;;;20.17;41.63;99846.97;4956408;28;4703;-67
2023/03/06 07:55:51;;;;;;;;;;;;;;;20.62;41.58;99854.84;4957024;28;4129;-67
2023/03/06 07:58:17;;;;;;;;;;;;;;;20.79;40.92;99856.03;4957525;28;4040;-71
2023/03/06 08:00:43;;;;;;;;;;;;;;;20.85;40.92;99858.38;4955820;28;4170;-70
2023/03/06 08:03:10;;;;;;;;;;;;;;;20.94;40.91;99862.94;4957175;28;4140;-69
2023/03/06 08:05:37;;;;;;;;;;;;;;;20.96;40.83;99862.25;4956422;28;4167;-69
2023/03/06 08:08:03;;;;;;;;;;;;;;;21.03;41.40;99850.25;4961550;28;4064;-69
2023/03/06 08:10:29;;;;;;;;;;;;;;;21.10;41.52;99857.63;4956427;28;4212;-69
2023/03/06 08:12:55;;;;;;;;;;;;;;;21.20;41.90;99847.81;4952548;28;6364;-68
2023/03/06 08:15:22;;;;;;;;;;;;;;;21.20;41.91;99851.41;4955247;28;4932;-68
2023/03/06 08:17:48;;;;;;;;;;;;;;;21.19;41.78;99855.72;4953030;28;4191;-65
2023/03/06 08:20:17;;;;;;;;;;;;;;;21.17;41.92;99858.53;4952738;28;4544;-68
2023/03/06 08:22:43;;;;;;;;;;;;;;;21.03;42.15;99858.16;4955140;28;4377;-67
2023/03/06 08:25:10;;;;;;;;;;;;;;;20.92;42.45;99866.47;4948113;28;4119;-67
2023/03/06 08:27:36;;;;;;;;;;;;;;;20.92;42.69;99868.63;4959121;28;5227;-67
2023/03/06 08:30:03;;;;;;;;;;;;;;;20.90;42.69;99872.19;4955005;28;4224;-68
2023/03/06 08:32:29;;;;;;;;;;;;;;;20.91;42.91;99867.91;4956240;28;4139;-68
2023/03/06 08:34:55;;;;;;;;;;;;;;;20.89;42.88;99872.84;4955139;28;5133;-68
2023/03/06 08:37:22;;;;;;;;;;;;;;;20.88;43.17;99877.88;4953589;28;4503;-65
2023/03/06 08:39:48;;;;;;;;;;;;;;;20.89;43.09;99879.34;4952476;28;5245;-66
2023/03/06 08:42:14;;;;;;;;;;;;;;;20.89;43.14;99882.22;4954884;28;4389;-65
2023/03/06 08:44:41;;;;;;;;;;;;;;;20.88;43.33;99880.75;4952609;28;5470;-66
2023/03/06 08:47:07;;;;;;;;;;;;;;;20.88;43.16;99877.16;4953067;28;4272;-66
2023/03/06 08:49:34;;;;;;;;;;;;;;;20.85;43.37;99876.34;4953175;28;4335;-64
2023/03/06 08:52:01;;;;;;;;;;;;;;;20.96;43.35;99879.50;4953036;28;4354;-63
2023/03/06 08:54:27;;;;;;;;;;;;;;;20.85;43.73;99876.34;4945080;28;4494;-66
2023/03/06 08:56:53;;;;;;;;;;;;;;;20.83;43.80;99875.56;4955422;28;4352;-68
2023/03/06 08:59:20;;;;;;;;;;;;;;;20.89;44.02;99879.34;4953005;28;4353;-69
2023/03/06 09:01:46;;;;;;;;;;;;;;;21.10;44.13;99865.53;4951506;28;5276;-73
2023/03/06 09:04:13;;;;;;;;;;;;;;;21.24;44.59;99868.78;4946243;28;4472;-71
2023/03/06 09:06:40;;;;;;;;;;;;;;;21.24;44.14;99868.06;4950773;28;4376;-74
2023/03/06 09:09:06;;;;;;;;;;;;;;;21.26;43.57;99873.88;4955367;28;4136;-74
2023/03/06 09:11:32;;;;;;;;;;;;;;;21.26;43.89;99865.97;4953642;28;4236;-73
2023/03/06 09:13:59;;;;;;;;;;;;;;;21.24;43.85;99871.69;4950889;28;4128;-78
2023/03/06 09:16:25;;;;;;;;;;;;;;;21.24;43.72;99873.81;4953163;28;4116;-74
2023/03/06 09:18:52;;;;;;;;;;;;;;;21.27;43.83;99876.06;4953875;28;4160;-75
2023/03/06 09:21:19;;;;;;;;;;;;;;;21.26;43.71;99883.25;4956156;28;4230;-77
2023/03/06 09:23:45;;;;;;;;;;;;;;;21.30;43.74;99877.59;4959601;28;5423;-72
2023/03/06 09:26:12;;;;;;;;;;;;;;;21.36;43.70;99882.06;4956549;28;5234;-70
2023/03/06 09:28:38;;;;;;;;;;;;;;;21.38;43.67;99887.88;4956331;28;4160;-71
2023/03/06 09:31:11;;;;;;;;;;;;;;;21.33;43.87;99881.28;4956430;28;4534;-72
2023/03/06 09:33:38;;;;;;;;;;;;;;;21.37;43.99;99886.38;4941123;28;5408;-66
2023/03/06 09:36:05;;;;;;;;;;;;;;;21.38;43.92;99882.09;4956966;28;4064;-67
2023/03/06 09:38:31;;;;;;;;;;;;;;;21.36;43.70;99884.94;4955649;28;4223;-68
2023/03/06 09:40:57;;;;;;;;;;;;;;;21.32;43.70;99877.63;4956714;28;5261;-66
2023/03/06 09:43:26;;;;;;;;;;;;;;;21.34;43.79;99876.97;4953883;28;4243;-69
2023/03/06 09:45:53;;;;;;;;;;;;;;;21.37;43.60;99877.75;4961226;28;4172;-67
2023/03/06 09:48:20;;;;;;;;;;;;;;;21.25;44.02;99881.03;4957022;28;5334;-70
2023/03/06 09:50:49;;;;;;;;;;;;;;;21.25;43.75;99881.75;4948159;28;5829;-68
2023/03/06 09:53:34;;;;;;;;;;;;;;;21.24;43.85;99885.34;4957338;28;4262;-69
2023/03/06 09:56:02;;;;;;;;;;;;;;;21.27;43.90;99878.94;4957066;28;4617;-72
2023/03/06 09:58:29;;;;;;;;;;;;;;;21.33;43.66;99876.25;4941425;28;4142;-70
2023/03/06 10:01:15;;;;;;;;;;;;;;;21.33;43.90;99882.00;4955980;28;4425;-71
2023/03/06 10:03:47;;;;;;;;;;;;;;;21.34;43.99;99876.97;4958035;28;4165;-67
2023/03/06 10:06:28;;;;;;;;;;;;;;;21.25;43.36;99887.53;4960963;28;5295;-68
2023/03/06 10:09:12;;;;;;;;;;;;;;;21.05;43.95;99886.97;4949266;28;4855;-69
2023/03/06 10:11:42;;;;;;;;;;;;;;;21.17;44.09;99895.94;4945340;28;4252;-72
2023/03/06 10:14:17;;;;;;;;;;;;;;;20.47;43.00;99891.03;4934864;28;4215;-68
2023/03/06 10:16:44;;;;;;;;;;;;;;;20.86;42.48;99882.84;4959407;28;4030;-70
2023/03/06 10:19:11;;;;;;;;;;;;;;;21.04;42.81;99888.38;4956171;28;4329;-69
2023/03/06 10:21:41;;;;;;;;;;;;;;;21.09;42.61;99884.19;4948330;28;4080;-69
2023/03/06 10:24:16;;;;;;;;;;;;;;;21.17;43.12;99895.94;4935315;28;4224;-69
2023/03/06 10:26:43;;;;;;;;;;;;;;;21.22;43.08;99903.28;4944118;28;4443;-70
2023/03/06 10:29:10;;;;;;;;;;;;;;;21.34;43.02;99883.44;4956757;28;3969;-69
2023/03/06 10:31:37;;;;;;;;;;;;;;;21.44;43.30;99882.28;4958482;28;4066;-70
2023/03/06 10:34:22;;;;;;;;;;;;;;;21.42;43.17;99882.25;4955981;28;4136;-69
2023/03/06 10:36:49;;;;;;;;;;;;;;;21.61;43.08;99884.19;4958722;28;4323;-71
2023/03/06 10:39:16;;;;;;;;;;;;;;;21.63;43.24;99884.25;4960275;28;4150;-71
2023/03/06 10:41:42;;;;;;;;;;;;;;;21.67;43.46;99887.22;4959931;28;4155;-68
2023/03/06 10:44:10;;;;;;;;;;;;;;;21.70;43.71;99888.75;4960407;28;4321;-68
2023/03/06 10:46:43;;;;;;;;;;;;;;;21.70;44.12;99885.84;4959079;28;4021;-68
2023/03/06 10:49:21;;;;;;;;;;;;;;;21.72;44.04;99885.91;4947372;28;4149;-68
2023/03/06 10:51:58;;;;;;;;;;;;;;;21.73;43.69;99893.13;4959844;28;4451;-69
2023/03/06 10:54:24;;;;;;;;;;;;;;;21.78;43.95;99887.47;4958222;28;4340;-69
2023/03/06 10:56:50;;;;;;;;;;;;;;;21.78;44.04;99884.59;4957149;28;5287;-67
2023/03/06 10:59:17;;;;;;;;;;;;;;;21.77;44.04;99883.13;4954661;28;4178;-70
2023/03/06 11:01:44;;;;;;;;;;;;;;;21.75;44.68;99884.53;4959593;28;4307;-73
2023/03/06 11:04:23;;;;;;;;;;;;;;;21.81;44.17;99883.97;4960607;28;4223;-69
2023/03/06 11:07:03;;;;;;;;;;;;;;;21.87;44.27;99883.38;4957658;28;4453;-70
2023/03/06 11:09:31;;;;;;;;;;;;;;;21.88;44.26;99887.75;4958338;28;4173;-70
2023/03/06 11:12:16;;;;;;;;;;;;;;;21.94;44.25;99885.00;4959146;28;4178;-70
2023/03/06 11:14:42;;;;;;;;;;;;;;;22.07;44.07;99886.03;4958907;28;4806;-71
2023/03/06 11:17:24;;;;;;;;;;;;;;;22.14;44.16;99882.59;4960411;28;4198;-72
2023/03/06 11:19:51;;;;;;;;;;;;;;;22.20;44.19;99879.13;4959515;28;4271;-73
2023/03/06 11:22:17;;;;;;;;;;;;;;;22.24;44.16;99872.75;4944685;28;4002;-76
2023/03/06 11:24:45;;;;;;;;;;;;;;;22.27;43.85;99875.00;4959242;28;4254;-75
2023/03/06 11:27:22;;;;;;;;;;;;;;;22.30;44.04;99876.50;4943847;28;4421;-71
2023/03/06 11:29:49;;;;;;;;;;;;;;;22.30;43.70;99876.50;4946794;28;4003;-76
2023/03/06 11:32:28;;;;;;;;;;;;;;;22.25;43.68;99874.94;4946528;28;4176;-71
2023/03/06 11:35:02;;;;;;;;;;;;;;;22.26;43.72;99875.66;4945744;28;5124;-70
2023/03/06 11:37:28;;;;;;;;;;;;;;;22.24;43.37;99867.72;4947852;28;4210;-69
2023/03/06 11:40:09;;;;;;;;;;;;;;;22.26;43.41;99861.97;4959363;28;4310;-70
2023/03/06 11:43:11;;;;;;;;;;;;;;;22.28;43.27;99867.06;4960208;28;4353;-69
2023/03/06 11:45:44;;;;;;;;;;;;;;;22.31;43.49;99871.44;4925239;29;4849;-78
2023/03/06 11:48:17;;;;;;;;;;;;;;;22.33;43.57;99868.63;4938326;28;4124;-79
2023/03/06 11:50:44;;;;;;;;;;;;;;;22.33;43.67;99859.97;4960441;28;4026;-75
2023/03/06 11:53:11;;;;;;;;;;;;;;;22.28;43.65;99858.41;4948089;28;4116;-76
2023/03/06 11:55:45;;;;;;;;;;;;;;;22.30;43.71;99861.34;4941936;28;5495;-72
2023/03/06 11:58:30;;;;;;;;;;;;;;;22.31;43.87;99859.91;4946449;28;4454;-71
2023/03/06 12:00:58;;;;;;;;;;;;;;;22.26;44.05;99861.25;4958267;28;4320;-73
2023/03/06 12:03:40;;;;;;;;;;;;;;;22.25;43.99;99857.66;4945033;28;4182;-74
2023/03/06 12:06:10;;;;;;;;;;;;;;;22.23;44.16;99854.00;4958787;28;4101;-72
2023/03/06 12:08:43;;;;;;;;;;;;;;;22.20;43.90;99849.56;4959099;28;4326;-74
2023/03/06 12:11:23;;;;;;;;;;;;;;;22.18;44.02;99847.38;4955082;28;4121;-75
2023/03/06 12:13:57;;;;;;;;;;;;;;;22.20;44.16;99850.28;4959652;28;4186;-76
2023/03/06 12:16:34;;;;;;;;;;;;;;;22.21;44.33;99845.25;4948058;28;4197;-78
2023/03/06 12:19:19;;;;;;;;;;;;;;;22.22;44.31;99846.75;4946277;28;4098;-75
2023/03/06 12:21:51;;;;;;;;;;;;;;;22.22;44.33;99846.75;4958994;28;4059;-76
2023/03/06 12:24:56;;;;;;;;;;;;;;;22.23;44.02;99856.88;4956789;28;4136;-73
2023/03/06 12:27:26;;;;;;;;;;;;;;;22.16;44.45;99844.44;4905696;29;4330;-72
2023/03/06 12:29:57;;;;;;;;;;;;;;;22.16;44.27;99848.03;4890357;29;4152;-71
2023/03/06 12:32:26;;;;;;;;;;;;;;;22.16;44.27;99850.94;4917542;28;4379;-77
2023/03/06 12:35:12;;;;;;;;;;;;;;;22.17;44.34;99846.63;4961297;28;4146;-79
2023/03/06 12:37:41;;;;;;;;;;;;;;;22.23;44.18;99839.56;4958973;28;4052;-80
2023/03/06 12:40:08;;;;;;;;;;;;;;;22.22;44.04;99841.72;4949446;28;4117;-78
2023/03/06 12:42:53;;;;;;;;;;;;;;;22.30;44.16;99846.94;4957899;28;5274;-72
2023/03/06 12:45:25;;;;;;;;;;;;;;;22.32;44.19;99844.81;4948249;28;4120;-75
2023/03/06 12:47:53;;;;;;;;;;;;;;;22.25;44.41;99840.34;4941380;28;5264;-81
2023/03/06 12:50:21;;;;;;;;;;;;;;;22.26;44.40;99841.06;4960668;28;4244;-78
2023/03/06 12:52:47;;;;;;;;;;;;;;;22.26;44.21;99841.78;4947040;28;4203;-70
2023/03/06 12:55:15;;;;;;;;;;;;;;;22.13;43.25;99842.94;4954696;28;4193;-71
2023/03/06 12:57:42;;;;;;;;;;;;;;;21.72;43.02;99845.56;4945164;28;4178;-72
2023/03/06 13:00:27;;;;;;;;;;;;;;;21.88;44.04;99844.50;4946223;28;4041;-79
2023/03/06 13:02:59;;;;;;;;;;;;;;;22.23;44.12;99842.44;4957540;28;5177;-80
2023/03/06 13:05:25;;;;;;;;;;;;;;;22.29;44.13;99836.81;4958568;28;4055;-76